Time;durP1;ratioP1;P1;durP2;ratioP2;P2;SDS_P1;SDS_P2;PMS_P1;PMS_P2;Temp;Humidity;BMP_temperature;BMP_pressure;BME280_temperature;BME280_humidity;BME280_pressure;Samples;Min_cycle;Max_cycle;Signal;HPM_P1;HPM_P2
2020/12/25 05:18:23;;;;;;;2.83;1.98;;;-2.10;99.90;;;;;;5790120;23;20219;-90
2020/12/25 05:20:52;;;;;;;2.60;2.03;;;-2.10;99.90;;;;;;4883822;29;20029;-83
2020/12/25 05:23:18;;;;;;;2.63;2.00;;;-2.20;99.90;;;;;;4893938;29;20201;-87
2020/12/25 05:25:45;;;;;;;2.45;2.15;;;-2.20;99.90;;;;;;4880534;29;20028;-87
2020/12/25 05:28:12;;;;;;;2.35;2.10;;;-2.20;99.90;;;;;;4890430;29;20503;-85
2020/12/25 05:30:48;;;;;;;4.03;2.10;;;-2.20;99.90;;;;;;4899144;29;20027;-85
2020/12/25 05:33:15;;;;;;;2.70;1.83;;;-2.20;99.90;;;;;;4899148;29;20067;-76
2020/12/25 05:35:42;;;;;;;2.70;1.75;;;-2.30;99.90;;;;;;4898054;29;20025;-76
2020/12/25 05:38:11;;;;;;;2.45;2.03;;;-2.30;99.90;;;;;;4898777;29;20024;-74
2020/12/25 05:40:43;;;;;;;3.17;2.22;;;-2.30;99.90;;;;;;4898236;29;20032;-87
2020/12/25 05:43:11;;;;;;;2.83;2.28;;;-2.30;99.90;;;;;;4895342;29;20036;-76
2020/12/25 05:45:41;;;;;;;3.03;2.00;;;-2.20;99.90;;;;;;4898212;29;20092;-73
2020/12/25 05:48:08;;;;;;;2.40;2.20;;;-2.20;99.90;;;;;;4898543;29;20029;-78
2020/12/25 05:50:34;;;;;;;2.30;2.10;;;-2.20;99.90;;;;;;4898599;29;20392;-72
2020/12/25 05:53:00;;;;;;;4.07;1.88;;;-2.20;99.90;;;;;;4894017;29;20017;-87
2020/12/25 05:55:26;;;;;;;3.10;2.10;;;-2.20;99.90;;;;;;4880781;29;20093;-81
2020/12/25 05:57:53;;;;;;;2.85;2.10;;;-2.20;99.90;;;;;;4893502;29;20032;-77
2020/12/25 06:00:21;;;;;;;2.50;2.13;;;-2.30;99.90;;;;;;4895015;29;20028;-85
2020/12/25 06:02:54;;;;;;;3.58;2.45;;;-2.30;99.90;;;;;;4890868;29;20041;-77
2020/12/25 06:05:22;;;;;;;3.35;1.95;;;-2.30;99.90;;;;;;4889905;29;20045;-78
2020/12/25 06:07:56;;;;;;;1.85;1.75;;;-2.30;99.90;;;;;;4895943;29;20104;-79
2020/12/25 06:10:26;;;;;;;3.05;2.30;;;-2.40;99.90;;;;;;4897217;29;20492;-80
2020/12/25 06:12:54;;;;;;;2.17;1.95;;;-2.40;99.90;;;;;;4894116;29;20079;-79
2020/12/25 06:15:29;;;;;;;2.78;2.17;;;-2.40;99.90;;;;;;4895153;29;20037;-79
2020/12/25 06:18:02;;;;;;;2.33;2.13;;;-2.40;99.90;;;;;;4897143;29;20024;-79
2020/12/25 06:20:38;;;;;;;2.35;1.75;;;-2.40;99.90;;;;;;4878546;29;20085;-79
2020/12/25 06:23:04;;;;;;;2.53;2.10;;;-2.40;99.90;;;;;;4883299;29;20041;-86
2020/12/25 06:25:30;;;;;;;3.88;2.00;;;-2.40;99.90;;;;;;4874576;29;20033;-77
2020/12/25 06:28:01;;;;;;;2.65;2.42;;;-2.50;99.90;;;;;;4871666;29;20481;-87
2020/12/25 06:30:32;;;;;;;3.47;2.10;;;-2.50;99.90;;;;;;4878926;29;20037;-78
2020/12/25 06:32:58;;;;;;;3.05;2.08;;;-2.50;99.90;;;;;;4878867;29;20061;-73
2020/12/25 06:35:32;;;;;;;2.60;2.17;;;-2.30;99.90;;;;;;4878795;29;20052;-74
2020/12/25 06:37:59;;;;;;;2.53;2.22;;;-2.30;99.90;;;;;;4878701;29;20029;-74
2020/12/25 06:40:26;;;;;;;3.97;2.50;;;-2.40;99.90;;;;;;4878684;29;20061;-74
2020/12/25 06:42:55;;;;;;;4.00;2.28;;;-2.40;99.90;;;;;;4878963;29;20037;-74
2020/12/25 06:45:31;;;;;;;2.38;2.03;;;-2.50;99.90;;;;;;4865901;29;20025;-74
2020/12/25 06:48:21;;;;;;;3.17;2.60;;;-2.40;99.90;;;;;;4878881;29;20030;-74
2020/12/25 06:50:58;;;;;;;3.50;2.17;;;-2.40;99.90;;;;;;4861115;29;20037;-74
2020/12/25 06:53:41;;;;;;;2.42;2.00;;;-2.40;99.90;;;;;;4878570;29;20080;-74
2020/12/25 06:56:18;;;;;;;3.65;2.55;;;-2.40;99.90;;;;;;4878578;29;20021;-73
2020/12/25 06:58:49;;;;;;;3.20;2.38;;;-2.50;99.90;;;;;;4878554;29;20118;-74
2020/12/25 07:01:17;;;;;;;4.72;2.30;;;-2.50;99.90;;;;;;4878351;29;20040;-74
2020/12/25 07:03:43;;;;;;;2.97;2.25;;;-2.50;99.90;;;;;;4878433;29;20033;-74
2020/12/25 07:06:11;;;;;;;2.95;2.40;;;-2.40;99.90;;;;;;4878419;29;20628;-76
2020/12/25 07:08:49;;;;;;;3.72;2.15;;;-2.00;99.90;;;;;;4878283;29;20037;-76
2020/12/25 07:11:16;;;;;;;2.50;2.13;;;-1.40;99.90;;;;;;4878779;29;20037;-78
2020/12/25 07:13:42;;;;;;;3.35;2.15;;;-1.60;99.90;;;;;;4877759;29;20495;-82
2020/12/25 07:16:08;;;;;;;2.45;2.10;;;-1.90;99.90;;;;;;4874954;29;20037;-80
2020/12/25 07:18:34;;;;;;;3.47;2.00;;;-2.00;99.90;;;;;;4877078;29;20547;-79
2020/12/25 07:21:03;;;;;;;3.20;2.25;;;-2.10;99.90;;;;;;4877024;29;20497;-79
2020/12/25 07:23:29;;;;;;;3.10;2.00;;;-2.20;99.90;;;;;;4885204;29;20404;-79
2020/12/25 07:26:00;;;;;;;2.65;2.17;;;-2.20;99.90;;;;;;4889988;29;20033;-82
2020/12/25 07:28:27;;;;;;;2.28;2.00;;;-2.20;99.90;;;;;;4870431;29;20041;-74
2020/12/25 07:30:55;;;;;;;2.03;1.80;;;-2.20;99.90;;;;;;4890029;29;20033;-82
2020/12/25 07:33:21;;;;;;;3.25;2.17;;;-2.20;99.90;;;;;;4876863;29;20104;-77
2020/12/25 07:35:48;;;;;;;5.28;2.95;;;-2.30;99.90;;;;;;4881154;29;20025;-78
2020/12/25 07:38:14;;;;;;;2.50;2.30;;;-2.20;99.90;;;;;;4884212;29;20505;-80
2020/12/25 07:40:44;;;;;;;32.00;11.77;;;-2.30;99.90;;;;;;4879448;29;20052;-77
2020/12/25 07:43:14;;;;;;;8.23;3.75;;;-2.40;99.90;;;;;;4876954;29;20064;-77
2020/12/25 07:45:40;;;;;;;3.10;2.15;;;-2.40;99.90;;;;;;4875642;29;20131;-76
2020/12/25 07:48:07;;;;;;;4.40;2.53;;;-2.40;99.90;;;;;;4876794;29;20021;-74
2020/12/25 07:50:40;;;;;;;3.70;2.58;;;-2.40;99.90;;;;;;4875782;29;20057;-86
2020/12/25 07:53:17;;;;;;;2.92;2.20;;;-2.40;99.90;;;;;;4870206;29;20026;-77
2020/12/25 07:55:49;;;;;;;4.13;2.17;;;-2.40;99.90;;;;;;4872746;29;20032;-76
2020/12/25 07:58:17;;;;;;;2.92;2.00;;;-2.40;99.90;;;;;;4876819;29;20021;-77
2020/12/25 08:00:43;;;;;;;2.45;1.23;;;-2.40;99.90;;;;;;4875711;29;20390;-76
2020/12/25 08:03:10;;;;;;;2.58;1.85;;;-2.40;99.90;;;;;;4876297;29;20370;-76
2020/12/25 08:05:36;;;;;;;2.20;2.00;;;-2.50;99.90;;;;;;4883634;29;20544;-77
2020/12/25 08:08:03;;;;;;;2.28;1.73;;;-2.50;99.90;;;;;;4886749;29;20396;-79
2020/12/25 08:10:31;;;;;;;4.68;2.15;;;-2.50;99.90;;;;;;4888456;29;20025;-78
2020/12/25 08:12:58;;;;;;;3.08;1.90;;;-2.60;99.90;;;;;;4884454;29;20033;-76
2020/12/25 08:15:25;;;;;;;4.22;2.20;;;-2.60;99.90;;;;;;4884801;29;20032;-78
2020/12/25 08:17:57;;;;;;;2.10;1.90;;;-2.60;99.90;;;;;;4886675;29;20381;-78
2020/12/25 08:20:23;;;;;;;3.80;1.77;;;-2.70;99.90;;;;;;4876018;29;20119;-78
2020/12/25 08:22:50;;;;;;;3.63;2.30;;;-2.70;99.90;;;;;;4895665;29;20127;-79
2020/12/25 08:25:17;;;;;;;4.82;1.90;;;-2.70;99.90;;;;;;4872151;29;20029;-76
2020/12/25 08:27:44;;;;;;;2.10;1.90;;;-2.70;99.90;;;;;;4888385;29;20032;-78
2020/12/25 08:30:10;;;;;;;2.22;1.88;;;-2.70;99.90;;;;;;4890729;29;20027;-78
2020/12/25 08:32:35;;;;;;;2.38;2.05;;;-2.80;99.90;;;;;;4892101;29;20033;-75
2020/12/25 08:35:12;;;;;;;2.08;1.52;;;-2.80;99.90;;;;;;4882581;29;20043;-75
2020/12/25 08:37:38;;;;;;;2.00;1.35;;;-2.70;99.90;;;;;;4881169;29;20036;-72
2020/12/25 08:40:16;;;;;;;2.85;2.20;;;-2.70;99.90;;;;;;4879881;29;20040;-74
2020/12/25 08:42:42;;;;;;;2.60;1.90;;;-2.80;99.90;;;;;;4871768;29;20037;-71
2020/12/25 08:45:08;;;;;;;3.45;2.10;;;-2.70;99.90;;;;;;4880911;29;20021;-71
2020/12/25 08:47:35;;;;;;;2.60;2.00;;;-2.70;99.90;;;;;;4880820;29;20473;-72
2020/12/25 08:50:01;;;;;;;3.00;1.75;;;-2.70;99.90;;;;;;4880490;29;20025;-72
2020/12/25 08:52:28;;;;;;;3.05;1.98;;;-2.70;99.90;;;;;;4881100;29;20029;-72
2020/12/25 08:55:00;;;;;;;2.17;1.70;;;-2.70;99.90;;;;;;4880378;29;20017;-73
2020/12/25 08:57:28;;;;;;;7.45;3.67;;;-2.70;99.90;;;;;;4880888;29;20033;-73
2020/12/25 09:00:21;;;;;;;3.30;2.45;;;-2.70;99.90;;;;;;4882274;29;20036;-73
2020/12/25 09:02:56;;;;;;;3.85;2.25;;;-2.70;99.90;;;;;;4877462;29;20556;-72
2020/12/25 09:05:22;;;;;;;2.35;1.80;;;-2.80;99.90;;;;;;4880642;29;20025;-72
2020/12/25 09:07:47;;;;;;;2.50;1.90;;;-2.70;99.90;;;;;;4880313;29;20025;-72
2020/12/25 09:10:13;;;;;;;2.50;1.75;;;-2.80;99.90;;;;;;4880453;29;20033;-72
2020/12/25 09:12:39;;;;;;;3.28;2.20;;;-2.80;99.90;;;;;;4880246;29;20129;-73
2020/12/25 09:15:05;;;;;;;2.72;2.30;;;-2.80;99.90;;;;;;4880190;29;20029;-72
2020/12/25 09:17:30;;;;;;;3.10;2.50;;;-2.80;99.90;;;;;;4880132;29;20036;-72
2020/12/25 09:19:56;;;;;;;3.03;2.08;;;-2.80;99.90;;;;;;4879828;29;20060;-72
2020/12/25 09:22:22;;;;;;;3.20;2.00;;;-2.80;99.90;;;;;;4880097;29;20041;-73
2020/12/25 09:24:47;;;;;;;3.60;1.92;;;-2.80;99.90;;;;;;4880149;29;20099;-72
2020/12/25 09:27:13;;;;;;;4.07;2.22;;;-2.80;99.90;;;;;;4874281;29;20029;-74
2020/12/25 09:29:39;;;;;;;4.00;1.88;;;-2.80;99.90;;;;;;4882124;29;20028;-73
2020/12/25 09:32:05;;;;;;;2.15;1.92;;;-2.40;99.90;;;;;;4882494;29;20204;-82
2020/12/25 09:34:30;;;;;;;3.65;2.42;;;-2.30;99.90;;;;;;4880042;29;20018;-86
2020/12/25 09:36:56;;;;;;;3.67;2.35;;;-2.40;99.90;;;;;;4879804;29;20040;-84
2020/12/25 09:39:22;;;;;;;3.97;2.28;;;-2.50;99.90;;;;;;4880061;29;20017;-77
2020/12/25 09:41:50;;;;;;;3.75;2.15;;;-2.50;99.90;;;;;;4878417;29;20560;-75
2020/12/25 09:44:16;;;;;;;2.97;2.15;;;-2.60;99.90;;;;;;4879973;29;20111;-75
2020/12/25 09:46:42;;;;;;;2.97;2.15;;;-2.30;99.90;;;;;;4879685;29;20923;-72
2020/12/25 09:49:08;;;;;;;2.50;1.98;;;-1.30;99.90;;;;;;4883989;29;20806;-78
2020/12/25 09:51:34;;;;;;;3.40;2.17;;;-1.70;99.90;;;;;;4882440;29;20029;-78
2020/12/25 09:53:59;;;;;;;3.03;2.00;;;-2.00;99.90;;;;;;4872566;29;20063;-79
2020/12/25 09:56:25;;;;;;;3.67;2.00;;;-2.20;99.90;;;;;;4889398;29;20035;-83
2020/12/25 09:58:51;;;;;;;3.63;2.47;;;-2.40;99.90;;;;;;4888125;29;20033;-79
2020/12/25 10:01:19;;;;;;;2.95;2.40;;;-2.40;99.90;;;;;;4890624;29;20501;-76
2020/12/25 10:03:44;;;;;;;2.97;2.25;;;-2.40;99.90;;;;;;4891903;29;20036;-80
2020/12/25 10:06:10;;;;;;;2.55;2.25;;;-2.50;99.90;;;;;;4887868;29;20021;-79
2020/12/25 10:08:36;;;;;;;2.67;2.03;;;-2.60;99.90;;;;;;4890517;29;20056;-81
2020/12/25 10:11:02;;;;;;;3.08;2.60;;;-2.70;99.90;;;;;;4888050;29;20473;-79
2020/12/25 10:13:28;;;;;;;4.50;2.28;;;-2.80;99.90;;;;;;4882906;29;20088;-78
2020/12/25 10:15:54;;;;;;;2.80;2.22;;;-2.80;99.90;;;;;;4881259;29;20028;-87
2020/12/25 10:18:20;;;;;;;2.92;2.28;;;-2.80;99.90;;;;;;4885894;29;20493;-80
2020/12/25 10:20:47;;;;;;;2.45;1.85;;;-2.80;99.90;;;;;;4882459;29;20493;-81
2020/12/25 10:23:13;;;;;;;3.55;2.20;;;-2.80;99.90;;;;;;4861925;29;20080;-77
2020/12/25 10:25:38;;;;;;;3.17;2.08;;;-2.80;99.90;;;;;;4863579;29;20065;-78
2020/12/25 10:28:04;;;;;;;4.40;2.40;;;-2.80;99.90;;;;;;4871554;29;20033;-78
2020/12/25 10:30:30;;;;;;;2.65;2.33;;;-2.80;99.90;;;;;;4879055;29;20115;-78
2020/12/25 10:32:55;;;;;;;2.97;2.70;;;-2.80;99.90;;;;;;4878894;29;20438;-76
2020/12/25 10:35:21;;;;;;;4.78;2.67;;;-2.70;99.90;;;;;;4879499;29;20028;-78
2020/12/25 10:37:47;;;;;;;3.03;2.40;;;-2.70;99.90;;;;;;4893120;29;20020;-78
2020/12/25 10:40:13;;;;;;;2.72;2.25;;;-2.70;99.90;;;;;;4893575;29;20029;-75
2020/12/25 10:42:40;;;;;;;2.10;1.90;;;-2.70;99.90;;;;;;4884713;29;20064;-76
2020/12/25 10:45:06;;;;;;;6.10;2.50;;;-2.80;99.90;;;;;;4890695;29;20060;-80
2020/12/25 10:47:33;;;;;;;4.05;2.47;;;-2.80;99.90;;;;;;4866363;29;20041;-80
2020/12/25 10:49:59;;;;;;;2.90;2.42;;;-2.80;99.90;;;;;;4860810;29;20071;-80
2020/12/25 10:52:25;;;;;;;4.65;2.40;;;-2.90;99.90;;;;;;4874572;29;20056;-79
2020/12/25 10:54:50;;;;;;;2.22;2.00;;;-2.90;99.90;;;;;;4860677;29;20036;-79
2020/12/25 10:57:16;;;;;;;4.05;2.33;;;-2.90;99.90;;;;;;4861327;29;20037;-79
2020/12/25 10:59:42;;;;;;;3.70;2.47;;;-2.90;99.90;;;;;;4869319;29;20028;-79
2020/12/25 11:02:08;;;;;;;2.90;1.83;;;-2.90;99.90;;;;;;4887382;29;20041;-78
2020/12/25 11:04:33;;;;;;;2.42;2.13;;;-2.90;99.90;;;;;;4895797;29;20029;-78
2020/12/25 11:06:59;;;;;;;2.85;2.30;;;-2.90;99.90;;;;;;4892271;29;20027;-78
2020/12/25 11:09:25;;;;;;;2.55;2.20;;;-2.90;99.90;;;;;;4868379;29;20036;-78
2020/12/25 11:11:50;;;;;;;2.80;2.13;;;-2.80;99.90;;;;;;4887674;29;20092;-78
2020/12/25 11:14:16;;;;;;;2.67;2.17;;;-2.80;99.90;;;;;;4895992;29;20357;-78
2020/12/25 11:16:42;;;;;;;3.08;2.10;;;-2.80;99.90;;;;;;4873276;29;20034;-78
2020/12/25 11:19:09;;;;;;;2.63;1.88;;;-2.80;99.90;;;;;;4887638;29;20052;-79
2020/12/25 11:21:35;;;;;;;3.15;1.92;;;-2.90;99.90;;;;;;4879348;29;20037;-77
2020/12/25 11:24:03;;;;;;;3.65;2.40;;;-2.90;99.90;;;;;;4863251;29;20033;-78
2020/12/25 11:26:34;;;;;;;4.97;2.70;;;-3.00;99.90;;;;;;4861100;29;20557;-78
2020/12/25 11:29:07;;;;;;;4.90;2.28;;;-2.90;99.90;;;;;;4880888;29;20036;-77
2020/12/25 11:31:35;;;;;;;5.93;2.70;;;-2.90;99.90;;;;;;4892468;29;20024;-73
2020/12/25 11:34:01;;;;;;;2.92;2.33;;;-2.80;99.90;;;;;;4865341;29;20477;-73
2020/12/25 11:36:32;;;;;;;3.58;2.08;;;-2.80;99.90;;;;;;4883410;29;20126;-71
2020/12/25 11:38:58;;;;;;;2.10;1.80;;;-2.80;99.90;;;;;;4865306;29;20057;-74
2020/12/25 11:41:25;;;;;;;2.75;1.98;;;-2.80;99.90;;;;;;4877650;29;20033;-73
2020/12/25 11:43:52;;;;;;;3.67;2.22;;;-2.80;99.90;;;;;;4877665;29;20040;-74
2020/12/25 11:46:19;;;;;;;2.85;2.25;;;-2.80;99.90;;;;;;4877851;29;20450;-74
2020/12/25 11:48:46;;;;;;;3.90;2.03;;;-2.80;99.90;;;;;;4877791;29;20485;-72
2020/12/25 11:51:20;;;;;;;3.53;2.28;;;-2.80;99.90;;;;;;4881731;29;20120;-72
2020/12/25 11:53:46;;;;;;;4.07;2.33;;;-2.90;99.90;;;;;;4882057;29;20061;-73
2020/12/25 11:56:16;;;;;;;2.83;2.08;;;-2.80;99.90;;;;;;4883578;29;20032;-74
2020/12/25 11:58:42;;;;;;;2.78;2.40;;;-2.80;99.90;;;;;;4883560;29;20029;-73
2020/12/25 12:01:08;;;;;;;4.78;2.40;;;-2.80;99.90;;;;;;4883542;29;20503;-73
2020/12/25 12:03:33;;;;;;;2.40;2.15;;;-2.90;99.90;;;;;;4882686;29;20093;-73
2020/12/25 12:06:00;;;;;;;4.72;2.80;;;-2.80;99.90;;;;;;4882786;29;20043;-73
2020/12/25 12:08:26;;;;;;;2.50;2.28;;;-2.20;99.90;;;;;;4883726;29;20033;-73
2020/12/25 12:10:51;;;;;;;6.22;2.35;;;-2.30;99.90;;;;;;4883415;29;20039;-74
2020/12/25 12:13:17;;;;;;;4.03;1.80;;;-2.40;99.90;;;;;;4883777;29;20029;-74
2020/12/25 12:15:43;;;;;;;2.85;2.35;;;-2.60;99.90;;;;;;4882215;29;20609;-74
2020/12/25 12:18:09;;;;;;;4.90;2.08;;;-2.70;99.90;;;;;;4883422;29;20033;-73
2020/12/25 12:20:36;;;;;;;2.70;2.00;;;-2.70;99.90;;;;;;4883168;29;20092;-73
2020/12/25 12:23:02;;;;;;;3.13;2.25;;;-2.80;99.90;;;;;;4883307;29;20048;-73
2020/12/25 12:25:28;;;;;;;3.85;2.35;;;-2.80;99.90;;;;;;4883242;29;20030;-73
2020/12/25 12:27:54;;;;;;;3.00;2.33;;;-2.80;99.90;;;;;;4883356;29;20401;-73
2020/12/25 12:30:20;;;;;;;5.03;2.40;;;-2.90;99.90;;;;;;4883210;29;20039;-73
2020/12/25 12:32:46;;;;;;;4.00;2.60;;;-2.90;99.90;;;;;;4883503;29;20032;-73
2020/12/25 12:35:12;;;;;;;3.40;2.55;;;-2.90;99.90;;;;;;4882939;29;20175;-74
2020/12/25 12:37:38;;;;;;;4.28;2.47;;;-3.00;99.90;;;;;;4882140;29;20165;-75
2020/12/25 12:40:04;;;;;;;3.25;2.20;;;-2.90;99.90;;;;;;4883595;29;20025;-75
2020/12/25 12:42:33;;;;;;;5.05;2.38;;;-2.90;99.90;;;;;;4883249;29;20036;-76
2020/12/25 12:44:59;;;;;;;2.55;2.05;;;-2.80;99.90;;;;;;4883050;29;20033;-76
2020/12/25 12:47:27;;;;;;;2.53;2.17;;;-2.80;99.90;;;;;;4883500;29;20452;-75
2020/12/25 12:49:53;;;;;;;3.10;2.20;;;-2.60;99.90;;;;;;4883508;29;20497;-76
2020/12/25 12:52:18;;;;;;;2.85;1.95;;;-2.70;99.90;;;;;;4883316;29;20112;-76
2020/12/25 12:54:44;;;;;;;4.22;2.63;;;-2.80;99.90;;;;;;4883415;29;20029;-76
2020/12/25 12:57:10;;;;;;;4.47;2.30;;;-2.80;99.90;;;;;;4883347;29;20496;-76
2020/12/25 12:59:38;;;;;;;4.53;2.13;;;-2.90;99.90;;;;;;4883310;29;20392;-75
2020/12/25 13:02:04;;;;;;;5.75;2.58;;;-2.90;99.90;;;;;;4881361;29;20120;-76
2020/12/25 13:04:30;;;;;;;2.60;1.80;;;-3.00;99.90;;;;;;4880344;29;20112;-76
2020/12/25 13:06:55;;;;;;;4.55;2.50;;;-3.00;99.90;;;;;;4880413;29;20033;-76
2020/12/25 13:09:21;;;;;;;2.97;2.53;;;-3.00;99.90;;;;;;4880137;29;20048;-76
2020/12/25 13:11:47;;;;;;;3.58;2.17;;;-3.00;99.90;;;;;;4880160;29;20503;-76
2020/12/25 13:14:12;;;;;;;5.15;2.15;;;-3.00;99.90;;;;;;4879901;29;20036;-76
2020/12/25 13:16:38;;;;;;;4.00;2.33;;;-3.00;99.90;;;;;;4879942;29;20025;-74
2020/12/25 13:19:04;;;;;;;3.13;2.33;;;-2.40;99.90;;;;;;4879718;29;20401;-75
2020/12/25 13:21:30;;;;;;;4.47;2.30;;;-2.60;99.90;;;;;;4882353;29;20033;-74
2020/12/25 13:23:56;;;;;;;3.38;2.20;;;-2.70;99.90;;;;;;4872865;29;20038;-75
2020/12/25 13:26:23;;;;;;;2.50;2.13;;;-2.80;99.90;;;;;;4879862;29;20095;-75
2020/12/25 13:28:50;;;;;;;3.17;2.05;;;-2.80;99.90;;;;;;4878179;29;20037;-75
2020/12/25 13:31:24;;;;;;;3.60;2.70;;;-3.00;99.90;;;;;;4879594;29;20028;-76
2020/12/25 13:33:51;;;;;;;3.15;2.17;;;-3.00;99.90;;;;;;4879829;29;20040;-75
2020/12/25 13:36:21;;;;;;;2.72;2.03;;;-3.10;99.90;;;;;;4879375;29;20017;-75
2020/12/25 13:38:48;;;;;;;2.58;1.90;;;-3.10;99.90;;;;;;4879815;29;20025;-75
2020/12/25 13:41:16;;;;;;;4.82;2.72;;;-3.20;99.90;;;;;;4862743;29;20029;-75
2020/12/25 13:43:42;;;;;;;3.65;2.40;;;-3.10;99.90;;;;;;4879523;29;20040;-76
2020/12/25 13:46:18;;;;;;;3.67;2.75;;;-3.10;99.90;;;;;;4879455;29;20033;-76
2020/12/25 13:48:45;;;;;;;2.40;2.20;;;-3.10;99.90;;;;;;4879915;29;20036;-75
2020/12/25 13:51:18;;;;;;;2.65;2.05;;;-3.00;99.90;;;;;;4879266;29;20031;-76
2020/12/25 13:53:44;;;;;;;3.53;2.17;;;-3.10;99.90;;;;;;4879540;29;20033;-76
2020/12/25 13:56:11;;;;;;;3.05;2.10;;;-3.10;99.90;;;;;;4879195;29;20029;-75
2020/12/25 13:58:37;;;;;;;3.03;2.28;;;-3.10;99.90;;;;;;4879561;29;20026;-76
2020/12/25 14:01:07;;;;;;;3.83;2.15;;;-3.20;99.90;;;;;;4878028;29;20056;-75
2020/12/25 14:03:33;;;;;;;3.58;2.28;;;-3.20;99.90;;;;;;4878967;29;20036;-75
2020/12/25 14:06:00;;;;;;;2.15;1.88;;;-3.30;99.90;;;;;;4878924;29;20148;-75
2020/12/25 14:08:26;;;;;;;2.67;2.20;;;-3.20;99.90;;;;;;4878935;29;20470;-75
2020/12/25 14:10:52;;;;;;;3.40;1.90;;;-3.20;99.90;;;;;;4884043;29;20099;-75
2020/12/25 14:13:18;;;;;;;3.88;2.15;;;-3.30;99.90;;;;;;4875152;29;20030;-76
2020/12/25 14:15:47;;;;;;;3.10;2.30;;;-3.30;99.90;;;;;;4873458;29;20563;-75
2020/12/25 14:18:14;;;;;;;6.65;2.28;;;-3.30;99.90;;;;;;4876171;29;20032;-75
2020/12/25 14:20:40;;;;;;;3.08;2.00;;;-3.30;99.90;;;;;;4871090;29;20045;-76
2020/12/25 14:23:08;;;;;;;3.55;2.38;;;-3.40;99.90;;;;;;4871088;29;20092;-75
2020/12/25 14:25:35;;;;;;;2.78;2.17;;;-3.40;99.90;;;;;;4866690;29;20435;-76
2020/12/25 14:28:01;;;;;;;4.47;2.60;;;-3.40;99.90;;;;;;4864377;29;20033;-76
2020/12/25 14:30:28;;;;;;;3.95;2.25;;;-3.40;99.90;;;;;;4889824;29;20032;-75
2020/12/25 14:32:57;;;;;;;2.78;2.40;;;-3.40;99.90;;;;;;4878839;29;20029;-74
2020/12/25 14:35:22;;;;;;;3.28;2.45;;;-3.40;99.90;;;;;;4878324;29;20021;-75
2020/12/25 14:37:48;;;;;;;3.75;2.10;;;-3.40;99.90;;;;;;4878474;29;20029;-75
2020/12/25 14:40:14;;;;;;;4.00;2.58;;;-3.40;99.90;;;;;;4877049;29;20044;-74
2020/12/25 14:42:39;;;;;;;3.92;2.70;;;-3.40;99.90;;;;;;4878324;29;20033;-74
2020/12/25 14:45:05;;;;;;;3.63;2.22;;;-3.30;99.90;;;;;;4878227;29;20025;-74
2020/12/25 14:47:31;;;;;;;2.75;1.98;;;-3.30;99.90;;;;;;4878167;29;20047;-75
2020/12/25 14:49:57;;;;;;;4.68;2.40;;;-3.40;99.90;;;;;;4878575;29;20041;-75
2020/12/25 14:52:23;;;;;;;4.65;2.50;;;-3.40;99.90;;;;;;4876912;29;20069;-75
2020/12/25 14:54:49;;;;;;;5.45;2.20;;;-3.40;99.90;;;;;;4878221;29;20032;-73
2020/12/25 14:57:15;;;;;;;2.78;1.80;;;-3.40;99.90;;;;;;4877679;29;20029;-72
2020/12/25 14:59:41;;;;;;;2.38;2.13;;;-3.30;99.90;;;;;;4873452;29;20469;-73
2020/12/25 15:02:07;;;;;;;2.17;1.95;;;-3.30;99.90;;;;;;4872247;29;20041;-73
2020/12/25 15:04:33;;;;;;;2.90;2.00;;;-3.30;99.90;;;;;;4875681;29;20033;-73
2020/12/25 15:06:59;;;;;;;5.00;2.22;;;-3.30;99.90;;;;;;4873356;29;20029;-74
2020/12/25 15:09:28;;;;;;;2.30;2.10;;;-3.40;99.90;;;;;;4871814;29;20029;-73
2020/12/25 15:12:07;;;;;;;1.67;1.50;;;-3.50;99.90;;;;;;4875467;29;20076;-72
2020/12/25 15:14:33;;;;;;;3.80;2.33;;;-3.30;99.90;;;;;;4875449;29;20025;-74
2020/12/25 15:16:59;;;;;;;2.20;2.00;;;-1.50;99.90;;;;;;4876847;29;20089;-74
2020/12/25 15:19:25;;;;;;;2.95;1.88;;;-1.90;99.90;;;;;;4873974;29;20600;-75
2020/12/25 15:21:51;;;;;;;3.78;2.00;;;-2.20;99.90;;;;;;4874510;29;20531;-75
2020/12/25 15:24:18;;;;;;;2.53;1.95;;;-2.40;99.90;;;;;;4875327;29;20036;-74
2020/12/25 15:26:44;;;;;;;2.33;1.70;;;-2.60;99.90;;;;;;4872830;29;20496;-73
2020/12/25 15:29:10;;;;;;;2.38;1.88;;;-2.70;99.90;;;;;;4877174;29;20028;-74
2020/12/25 15:31:36;;;;;;;4.32;2.25;;;-2.80;99.90;;;;;;4874930;29;20031;-75
2020/12/25 15:34:02;;;;;;;2.17;1.67;;;-2.90;99.90;;;;;;4873936;29;20096;-74
2020/12/25 15:36:28;;;;;;;2.58;1.88;;;-2.80;99.90;;;;;;4875525;29;20025;-74
2020/12/25 15:38:54;;;;;;;2.47;1.98;;;-2.50;99.90;;;;;;4873349;29;20032;-74
2020/12/25 15:41:20;;;;;;;2.10;1.88;;;-2.40;99.90;;;;;;4876181;29;20029;-75
2020/12/25 15:43:49;;;;;;;2.53;2.10;;;-2.50;99.90;;;;;;4873607;29;20442;-74
2020/12/25 15:46:15;;;;;;;4.45;2.10;;;-2.60;99.90;;;;;;4875685;29;20108;-74
2020/12/25 15:48:42;;;;;;;2.88;2.17;;;-2.70;99.90;;;;;;4874677;29;20124;-75
2020/12/25 15:51:12;;;;;;;3.35;2.38;;;-2.70;99.90;;;;;;4872724;29;20013;-74
2020/12/25 15:53:38;;;;;;;3.55;2.33;;;-2.80;99.90;;;;;;4877503;29;20033;-75
2020/12/25 15:56:04;;;;;;;4.75;2.03;;;-2.90;99.90;;;;;;4874727;29;20025;-75
2020/12/25 15:58:30;;;;;;;2.15;1.80;;;-2.90;99.90;;;;;;4879020;29;20128;-74
2020/12/25 16:00:55;;;;;;;2.35;1.95;;;-2.90;99.90;;;;;;4875899;29;20457;-75
2020/12/25 16:03:21;;;;;;;3.25;2.35;;;-3.00;99.90;;;;;;4876953;29;20032;-74
2020/12/25 16:05:47;;;;;;;4.10;2.65;;;-3.10;99.90;;;;;;4874926;29;20025;-74
2020/12/25 16:08:12;;;;;;;2.78;2.40;;;-3.00;99.90;;;;;;4877078;29;20020;-74
2020/12/25 16:10:40;;;;;;;3.50;2.45;;;-3.00;99.90;;;;;;4875593;29;20051;-74
2020/12/25 16:13:05;;;;;;;4.85;2.22;;;-2.90;99.90;;;;;;4874049;29;20517;-74
2020/12/25 16:15:34;;;;;;;2.75;2.50;;;-2.90;99.90;;;;;;4876117;29;20124;-75
2020/12/25 16:18:01;;;;;;;3.90;2.60;;;-2.80;99.90;;;;;;4877652;29;20022;-74
2020/12/25 16:20:27;;;;;;;3.20;2.70;;;-2.80;99.90;;;;;;4876643;29;20077;-74
2020/12/25 16:22:53;;;;;;;2.83;2.38;;;-2.80;99.90;;;;;;4873469;29;20036;-73
2020/12/25 16:25:19;;;;;;;3.05;2.40;;;-2.80;99.90;;;;;;4874367;29;20413;-74
2020/12/25 16:27:45;;;;;;;3.28;2.55;;;-2.70;99.90;;;;;;4874702;29;20025;-73
2020/12/25 16:30:11;;;;;;;3.63;2.10;;;-2.70;99.90;;;;;;4876627;29;20022;-73
2020/12/25 16:32:41;;;;;;;3.20;2.15;;;-2.30;99.90;;;;;;4874728;29;20197;-75
2020/12/25 16:35:11;;;;;;;5.53;2.35;;;-2.30;99.90;;;;;;4876074;29;20029;-74
2020/12/25 16:37:38;;;;;;;2.90;2.17;;;-2.40;99.90;;;;;;4876465;29;20029;-74
2020/12/25 16:40:05;;;;;;;3.75;2.30;;;-2.50;99.90;;;;;;4879199;29;20021;-74
2020/12/25 16:42:31;;;;;;;2.60;2.03;;;-2.50;99.90;;;;;;4877156;29;20033;-72
2020/12/25 16:44:57;;;;;;;3.90;2.45;;;-2.60;99.90;;;;;;4880341;29;20032;-72
2020/12/25 16:47:24;;;;;;;4.13;2.50;;;-2.70;99.90;;;;;;4880251;29;20540;-72
2020/12/25 16:49:50;;;;;;;2.30;2.10;;;-2.80;99.90;;;;;;4880247;29;20029;-74
2020/12/25 16:52:16;;;;;;;2.85;2.28;;;-2.80;99.90;;;;;;4878921;29;20057;-73
2020/12/25 16:54:42;;;;;;;3.40;2.30;;;-2.70;99.90;;;;;;4878335;29;20108;-73
2020/12/25 16:57:08;;;;;;;3.17;2.03;;;-2.70;99.90;;;;;;4879026;29;20400;-73
2020/12/25 16:59:33;;;;;;;4.35;2.00;;;-2.70;99.90;;;;;;4881323;29;20029;-74
2020/12/25 17:02:03;;;;;;;2.88;2.42;;;-2.80;99.90;;;;;;4878089;29;20122;-75
2020/12/25 17:04:30;;;;;;;6.00;2.50;;;-2.80;99.90;;;;;;4875236;29;20026;-76
2020/12/25 17:06:56;;;;;;;4.75;2.33;;;-2.60;99.90;;;;;;4874792;29;20412;-74
2020/12/25 17:09:22;;;;;;;2.53;2.20;;;-2.20;99.90;;;;;;4873186;29;20033;-75
2020/12/25 17:11:48;;;;;;;3.17;2.40;;;-2.30;99.90;;;;;;4871372;29;20030;-75
2020/12/25 17:14:14;;;;;;;3.90;2.50;;;-2.40;99.90;;;;;;4874684;29;20465;-75
2020/12/25 17:16:43;;;;;;;3.30;2.25;;;-2.50;99.90;;;;;;4869421;29;20037;-73
2020/12/25 17:19:09;;;;;;;4.60;2.22;;;-2.70;99.90;;;;;;4874498;29;20097;-76
2020/12/25 17:21:35;;;;;;;3.10;2.13;;;-2.70;99.90;;;;;;4870374;29;20033;-76
2020/12/25 17:24:01;;;;;;;4.47;2.80;;;-2.80;99.90;;;;;;4879044;29;20040;-75
2020/12/25 17:26:26;;;;;;;3.40;2.25;;;-2.80;99.90;;;;;;4870738;29;20028;-75
2020/12/25 17:28:53;;;;;;;3.83;2.40;;;-2.80;99.90;;;;;;4879084;29;20176;-75
2020/12/25 17:31:19;;;;;;;5.47;3.10;;;-2.80;99.90;;;;;;4880019;29;20036;-76
2020/12/25 17:33:46;;;;;;;3.78;2.50;;;-2.80;99.90;;;;;;4879992;29;20397;-75
2020/12/25 17:36:14;;;;;;;6.35;2.90;;;-2.70;99.90;;;;;;4880000;29;20040;-76
2020/12/25 17:38:40;;;;;;;3.83;2.38;;;-2.80;99.90;;;;;;4879802;29;20393;-77
2020/12/25 17:41:07;;;;;;;5.35;3.00;;;-2.80;99.90;;;;;;4879953;29;20025;-70
2020/12/25 17:43:38;;;;;;;12.32;3.33;;;-2.70;99.90;;;;;;4879585;29;20152;-68
2020/12/25 17:46:07;;;;;;;;;;;-0.30;99.90;;;;;;4880208;29;20489;-76
2020/12/25 17:48:33;;;;;;;6.75;2.90;;;1.40;99.90;;;;;;4866910;29;19912;-78
2020/12/25 17:50:58;;;;;;;5.47;2.67;;;1.30;99.90;;;;;;4875183;29;20032;-82
2020/12/25 17:53:24;;;;;;;3.42;2.17;;;0.30;99.90;;;;;;4862219;29;20026;-81
2020/12/25 17:55:50;;;;;;;4.38;2.40;;;-0.50;99.90;;;;;;4862872;29;20434;-82
2020/12/25 17:58:15;;;;;;;3.72;2.30;;;-1.10;99.90;;;;;;4863657;29;20085;-85
2020/12/25 18:00:41;;;;;;;4.63;2.58;;;-1.50;99.90;;;;;;4879738;29;20029;-82
2020/12/25 18:03:07;;;;;;;4.47;2.00;;;-1.80;99.90;;;;;;4879850;29;20044;-80
2020/12/25 18:05:33;;;;;;;9.43;2.72;;;-2.00;99.90;;;;;;4879597;29;20082;-80